createdAt,value
2022-10-03T00:02:28.225Z,0.80
2022-10-03T00:05:45.441Z,0.83
2022-10-03T00:09:03.833Z,0.80
2022-10-03T00:12:38.137Z,1.23
2022-10-03T00:16:05.547Z,1.00
2022-10-03T00:19:36.989Z,0.90
2022-10-03T00:22:47.257Z,1.03
2022-10-03T00:25:49.167Z,1.50
2022-10-03T00:29:04.064Z,1.23
2022-10-03T00:32:05.947Z,1.60
2022-10-03T00:35:39.492Z,1.40
2022-10-03T00:39:23.215Z,1.43
2022-10-03T00:42:52.905Z,0.40
2022-10-03T00:46:11.807Z,0.90
2022-10-03T00:50:04.846Z,0.30
2022-10-03T00:53:45.592Z,1.23
2022-10-03T00:57:06.047Z,0.30
2022-10-03T01:00:35.975Z,0.30
2022-10-03T01:04:12.942Z,0.30
2022-10-03T01:07:26.867Z,0.50
2022-10-03T01:10:58.178Z,0.60
2022-10-03T01:14:24.528Z,0.70
2022-10-03T01:17:49.899Z,0.60
2022-10-03T01:21:07.759Z,0.40
2022-10-03T01:24:29.006Z,0.30
2022-10-03T01:28:04.778Z,0.40
2022-10-03T01:31:11.027Z,0.40
2022-10-03T01:34:49.711Z,0.30
2022-10-03T01:37:57.875Z,0.43
2022-10-03T01:41:09.982Z,0.50
2022-10-03T01:44:42.044Z,0.57
2022-10-03T01:47:51.949Z,0.50
2022-10-03T01:51:48.451Z,0.93
2022-10-03T01:55:36.681Z,0.77
2022-10-03T01:59:07.618Z,0.40
2022-10-03T02:02:18.291Z,0.70
2022-10-03T02:05:29.209Z,0.63
2022-10-03T02:08:50.056Z,0.53
2022-10-03T02:11:51.947Z,0.70
2022-10-03T02:14:55.267Z,0.27
2022-10-03T02:17:58.506Z,0.40
2022-10-03T02:21:18.976Z,0.30
2022-10-03T02:24:45.832Z,0.50
2022-10-03T02:28:08.917Z,0.43
2022-10-03T02:31:46.670Z,0.60
2022-10-03T02:34:49.041Z,0.70
2022-10-03T02:38:11.059Z,0.70
2022-10-03T02:41:16.629Z,0.70
2022-10-03T02:44:43.922Z,0.80
2022-10-03T02:48:32.564Z,0.50
2022-10-03T02:52:18.185Z,0.60
2022-10-03T02:55:45.097Z,0.57
2022-10-03T02:59:11.135Z,0.70
2022-10-03T03:02:31.183Z,0.70
2022-10-03T03:06:29.965Z,0.67
2022-10-03T03:09:52.798Z,1.00
2022-10-03T03:13:32.441Z,0.97
2022-10-03T03:16:46.537Z,1.83
2022-10-03T03:20:19.876Z,2.07
2022-10-03T03:23:59.966Z,2.10
2022-10-03T03:27:24.202Z,1.50
2022-10-03T03:30:32.220Z,1.63
2022-10-03T03:33:55.986Z,1.30
2022-10-03T03:37:33.457Z,1.63
2022-10-03T03:40:44.213Z,1.50
2022-10-03T03:44:06.712Z,1.33
2022-10-03T03:47:20.577Z,1.50
2022-10-03T03:50:47.101Z,1.40
2022-10-03T03:53:51.982Z,1.50
2022-10-03T03:56:54.369Z,1.60
2022-10-03T04:00:15.567Z,1.90
2022-10-03T04:03:36.267Z,2.87
2022-10-03T04:06:50.572Z,6.90
2022-10-03T04:10:07.571Z,3.97
2022-10-03T04:13:23.101Z,1.90
2022-10-03T04:16:49.738Z,2.00
2022-10-03T04:20:22.780Z,2.10
2022-10-03T04:24:07.572Z,2.10
2022-10-03T04:27:38.318Z,2.20
2022-10-03T04:30:51.785Z,2.13
2022-10-03T04:34:16.110Z,2.60
2022-10-03T04:37:39.451Z,2.27
2022-10-03T04:41:23.876Z,2.33
2022-10-03T04:45:10.056Z,2.53
2022-10-03T04:48:19.472Z,2.43
2022-10-03T04:51:46.442Z,2.30
2022-10-03T04:55:06.916Z,2.50
2022-10-03T04:58:37.219Z,2.53
2022-10-03T05:01:51.577Z,2.03
2022-10-03T05:05:27.597Z,2.30
2022-10-03T05:08:49.128Z,2.40
2022-10-03T05:12:14.042Z,2.60
2022-10-03T05:15:34.937Z,2.63
2022-10-03T05:19:04.542Z,2.90
2022-10-03T05:22:19.549Z,2.73
2022-10-03T05:25:32.963Z,2.40
2022-10-03T05:28:37.019Z,2.33
2022-10-03T05:31:57.629Z,2.40
2022-10-03T05:35:18.267Z,2.67
2022-10-03T05:38:51.814Z,2.70
2022-10-03T05:42:21.934Z,2.80
2022-10-03T05:45:49.372Z,2.40
2022-10-03T05:49:17.224Z,2.53
2022-10-03T05:52:39.541Z,2.90
2022-10-03T05:56:12.815Z,2.43
2022-10-03T05:59:31.012Z,2.50
2022-10-03T06:03:00.420Z,2.20
2022-10-03T06:06:31.254Z,2.27
2022-10-03T06:10:04.032Z,3.20
2022-10-03T06:13:35.972Z,3.43
2022-10-03T06:17:30.481Z,3.67
2022-10-03T06:20:56.492Z,2.70
2022-10-03T06:24:38.793Z,2.27
2022-10-03T06:28:29.442Z,2.20
2022-10-03T06:32:05.517Z,2.47
2022-10-03T06:36:01.168Z,2.27
2022-10-03T06:39:11.753Z,2.60
2022-10-03T06:42:35.927Z,2.83
2022-10-03T06:45:52.678Z,3.00
2022-10-03T06:49:38.286Z,2.57
2022-10-03T06:52:50.860Z,1.83
2022-10-03T06:56:05.396Z,2.20
2022-10-03T06:59:39.831Z,1.60
2022-10-03T07:02:57.572Z,1.80
2022-10-03T07:06:30.453Z,2.07
2022-10-03T07:10:04.350Z,2.23
2022-10-03T07:13:21.542Z,2.23
2022-10-03T07:16:45.804Z,2.00
2022-10-03T07:20:15.167Z,2.43
2022-10-03T07:23:39.715Z,2.00
2022-10-03T07:27:11.151Z,1.53
2022-10-03T07:30:24.024Z,1.73
2022-10-03T07:33:41.177Z,1.90
2022-10-03T07:37:21.867Z,1.87
2022-10-03T07:40:55.822Z,2.90
2022-10-03T07:44:06.002Z,2.53
2022-10-03T07:47:50.046Z,1.40
2022-10-03T07:51:24.122Z,1.50
2022-10-03T07:55:10.945Z,1.63
2022-10-03T07:58:34.247Z,1.60
2022-10-03T08:02:01.107Z,1.40
2022-10-03T08:05:25.524Z,1.43
2022-10-03T08:09:04.895Z,1.37
2022-10-03T08:12:25.938Z,1.90
2022-10-03T08:15:28.600Z,1.80
2022-10-03T08:18:52.019Z,1.43
2022-10-03T08:22:03.561Z,1.23
2022-10-03T08:25:20.681Z,1.70
2022-10-03T08:28:59.991Z,1.70
2022-10-03T08:32:39.292Z,1.60
2022-10-03T08:35:50.057Z,2.00
2022-10-03T08:39:10.659Z,1.80
2022-10-03T08:42:23.542Z,1.87
2022-10-03T08:45:34.612Z,1.70
2022-10-03T08:49:14.352Z,1.73
2022-10-03T08:52:25.515Z,1.70
2022-10-03T08:55:43.471Z,2.10
2022-10-03T08:58:45.850Z,2.07
2022-10-03T09:02:10.240Z,1.60
2022-10-03T09:05:40.713Z,2.17
2022-10-03T09:09:07.568Z,1.40
2022-10-03T09:12:52.957Z,1.17
2022-10-03T09:16:48.962Z,1.77
2022-10-03T09:20:29.036Z,1.10
2022-10-03T09:24:05.859Z,1.30
2022-10-03T09:27:21.738Z,1.43
2022-10-03T09:30:40.753Z,1.83
2022-10-03T09:34:24.178Z,1.10
2022-10-03T09:37:41.850Z,0.90
2022-10-03T09:41:08.652Z,1.10
2022-10-03T09:44:47.336Z,1.10
2022-10-03T09:48:21.022Z,1.37
2022-10-03T09:51:38.363Z,1.30
2022-10-03T09:54:55.768Z,2.30
2022-10-03T09:58:36.318Z,1.33
2022-10-03T10:02:03.988Z,1.60
2022-10-03T10:05:36.796Z,1.17
2022-10-03T10:08:53.782Z,1.70
2022-10-03T10:12:24.837Z,1.53
2022-10-03T10:16:00.722Z,1.17
2022-10-03T10:19:18.202Z,1.37
2022-10-03T10:22:50.399Z,1.77
2022-10-03T10:26:10.671Z,1.57
2022-10-03T10:29:52.292Z,1.33
2022-10-03T10:33:45.082Z,1.30
2022-10-03T10:36:52.728Z,1.50
2022-10-03T10:40:13.626Z,1.60
2022-10-03T10:43:15.793Z,1.33
2022-10-03T10:46:33.542Z,1.33
2022-10-03T10:50:10.524Z,1.60
2022-10-03T10:53:47.576Z,1.70
2022-10-03T10:57:15.861Z,1.40
2022-10-03T11:00:39.612Z,1.93
2022-10-03T11:04:19.501Z,1.47
2022-10-03T11:07:53.830Z,1.53
2022-10-03T11:11:17.112Z,1.20
2022-10-03T11:14:56.733Z,1.17
2022-10-03T11:18:04.869Z,1.20
2022-10-03T11:21:31.632Z,1.37
2022-10-03T11:24:52.211Z,1.50
2022-10-03T11:28:19.654Z,1.33
2022-10-03T11:32:00.137Z,1.00
2022-10-03T11:35:24.087Z,1.43
2022-10-03T11:38:40.646Z,1.50
2022-10-03T11:42:00.127Z,1.60
2022-10-03T11:45:05.502Z,1.17
2022-10-03T11:48:44.296Z,1.23
2022-10-03T11:52:20.798Z,2.07
2022-10-03T11:55:34.231Z,1.10
2022-10-03T11:58:57.581Z,1.47
2022-10-03T12:02:08.394Z,1.00
2022-10-03T12:05:19.983Z,1.05
2022-10-03T12:08:52.063Z,1.42
2022-10-03T12:12:28.319Z,1.17
2022-10-03T12:15:38.776Z,0.90
2022-10-03T12:18:42.964Z,1.35
2022-10-03T12:21:53.997Z,1.25
2022-10-03T12:25:07.773Z,1.40
2022-10-03T12:28:16.579Z,1.50
2022-10-03T12:31:36.468Z,1.30
2022-10-03T12:35:02.976Z,1.50
2022-10-03T12:38:25.282Z,1.27
2022-10-03T12:41:53.447Z,1.30
2022-10-03T12:45:09.837Z,1.23
2022-10-03T12:48:44.386Z,1.53
2022-10-03T12:51:59.185Z,2.17
2022-10-03T12:55:31.024Z,1.93
2022-10-03T12:58:50.464Z,1.87
2022-10-03T13:02:20.988Z,2.40
2022-10-03T13:06:02.877Z,2.37
2022-10-03T13:09:17.384Z,1.67
2022-10-03T13:12:30.027Z,2.00
2022-10-03T13:16:08.813Z,1.10
2022-10-03T13:19:20.931Z,1.43
2022-10-03T13:22:34.999Z,1.30
2022-10-03T13:26:00.471Z,1.43
2022-10-03T13:29:14.453Z,1.20
2022-10-03T13:32:22.680Z,2.20
2022-10-03T13:36:03.257Z,1.40
2022-10-03T13:39:19.848Z,1.47
2022-10-03T13:42:47.515Z,1.30
2022-10-03T13:45:51.569Z,1.20
2022-10-03T13:49:02.151Z,1.20
2022-10-03T13:52:46.062Z,1.40
2022-10-03T13:55:58.648Z,1.13
2022-10-03T13:59:10.333Z,1.10
2022-10-03T14:02:30.693Z,1.30
2022-10-03T14:06:10.342Z,1.15
2022-10-03T14:09:28.067Z,1.00
2022-10-03T14:13:05.296Z,1.00
2022-10-03T14:16:18.903Z,1.17
2022-10-03T14:19:37.000Z,1.42
2022-10-03T14:22:57.836Z,1.48
2022-10-03T14:26:02.056Z,1.40
2022-10-03T14:29:11.492Z,1.77
2022-10-03T14:32:48.540Z,1.40
2022-10-03T14:36:04.946Z,1.50
2022-10-03T14:39:12.861Z,1.73
2022-10-03T14:42:49.160Z,1.57
2022-10-03T14:45:54.041Z,1.83
2022-10-03T14:52:38.948Z,2.30
2022-10-03T14:55:46.506Z,2.40
2022-10-03T14:58:53.696Z,2.67
2022-10-03T15:01:57.771Z,2.20
2022-10-03T15:05:15.447Z,2.13
2022-10-03T15:08:17.961Z,2.97
2022-10-03T15:11:37.071Z,3.37
2022-10-03T15:14:43.266Z,2.40
2022-10-03T15:17:57.981Z,2.63
2022-10-03T15:20:59.896Z,2.40
2022-10-03T15:24:07.517Z,1.73
2022-10-03T15:27:15.366Z,1.70
2022-10-03T15:30:24.926Z,1.90
2022-10-03T15:33:35.210Z,1.90
2022-10-03T15:36:39.455Z,2.40
2022-10-03T15:39:44.116Z,2.30
2022-10-03T15:42:54.356Z,2.10
2022-10-03T15:45:57.748Z,2.63
2022-10-03T15:49:05.236Z,3.60
2022-10-03T15:52:19.365Z,2.40
2022-10-03T15:55:43.128Z,2.17
2022-10-03T15:58:56.056Z,2.90
2022-10-03T16:01:59.426Z,2.93
2022-10-03T16:05:05.270Z,2.93
2022-10-03T16:08:12.022Z,2.50
2022-10-03T16:11:22.386Z,2.30
2022-10-03T16:14:41.546Z,3.67
2022-10-03T16:18:32.983Z,2.00
2022-10-03T16:21:43.215Z,2.33
2022-10-03T16:25:15.868Z,2.37
2022-10-03T16:28:21.854Z,2.07
2022-10-03T16:31:28.403Z,1.90
2022-10-03T16:34:31.987Z,2.30
2022-10-03T16:37:35.446Z,2.30
2022-10-03T16:40:38.312Z,1.97
2022-10-03T16:43:41.517Z,2.10
2022-10-03T16:46:44.791Z,2.23
2022-10-03T16:50:14.857Z,2.40
2022-10-03T16:53:17.290Z,2.37
2022-10-03T16:56:33.476Z,2.47
2022-10-03T16:59:39.005Z,2.20
2022-10-03T17:02:41.190Z,2.37
2022-10-03T17:05:46.091Z,2.60
2022-10-03T17:08:52.381Z,2.73
2022-10-03T17:12:04.908Z,2.53
2022-10-03T17:15:21.015Z,2.53
2022-10-03T17:18:42.046Z,2.70
2022-10-03T17:21:55.317Z,2.80
2022-10-03T17:25:18.283Z,3.10
2022-10-03T17:28:45.200Z,5.50
2022-10-03T17:31:57.916Z,5.53
2022-10-03T17:35:20.732Z,4.20
2022-10-03T17:38:50.653Z,2.67
2022-10-03T17:42:02.751Z,2.20
2022-10-03T17:45:17.937Z,3.37
2022-10-03T17:48:41.103Z,2.43
2022-10-03T17:51:45.874Z,2.63
2022-10-03T17:54:51.382Z,2.53
2022-10-03T17:58:01.073Z,2.63
2022-10-03T18:01:11.733Z,2.87
2022-10-03T18:04:34.962Z,2.93
2022-10-03T18:07:37.692Z,3.03
2022-10-03T18:10:44.236Z,3.30
2022-10-03T18:13:50.745Z,3.10
2022-10-03T18:17:05.836Z,3.77
2022-10-03T18:21:13.366Z,3.17
2022-10-03T18:24:20.993Z,3.20
2022-10-03T18:27:37.996Z,2.60
2022-10-03T18:30:47.987Z,3.10
2022-10-03T18:34:09.217Z,2.80
2022-10-03T18:37:27.116Z,3.20
2022-10-03T18:40:36.016Z,3.10
2022-10-03T18:43:47.518Z,2.63
2022-10-03T18:46:54.736Z,3.27
2022-10-03T18:50:06.777Z,2.43
2022-10-03T18:53:26.998Z,2.90
2022-10-03T18:56:29.791Z,3.03
2022-10-03T18:59:42.404Z,3.33
2022-10-03T19:02:51.097Z,2.77
2022-10-03T19:06:04.503Z,3.07
2022-10-03T19:09:19.979Z,3.07
2022-10-03T19:12:23.103Z,3.07
2022-10-03T19:15:43.064Z,3.30
2022-10-03T19:19:06.074Z,3.40
2022-10-03T19:22:12.686Z,2.90
2022-10-03T19:25:20.605Z,3.23
2022-10-03T19:29:02.981Z,3.20
2022-10-03T19:32:28.952Z,2.83
2022-10-03T19:35:31.374Z,3.53
2022-10-03T19:38:37.275Z,3.03
2022-10-03T19:42:00.903Z,3.47
2022-10-03T19:45:03.950Z,3.07
2022-10-03T19:48:11.570Z,3.40
2022-10-03T19:51:22.659Z,3.37
2022-10-03T19:54:34.022Z,3.23
2022-10-03T19:57:49.610Z,3.27
2022-10-03T20:00:54.271Z,3.37
2022-10-03T20:03:58.253Z,4.00
2022-10-03T20:07:00.352Z,3.17
2022-10-03T20:10:34.459Z,3.47
2022-10-03T20:13:42.948Z,3.13
2022-10-03T20:16:47.806Z,3.60
2022-10-03T20:19:55.506Z,3.40
2022-10-03T20:23:04.117Z,3.80
2022-10-03T20:26:10.521Z,4.07
2022-10-03T20:29:31.500Z,4.30
2022-10-03T20:32:36.801Z,3.63
2022-10-03T20:35:41.553Z,3.40
2022-10-03T20:38:50.700Z,3.33
2022-10-03T20:42:00.349Z,3.40
2022-10-03T20:45:07.092Z,3.00
2022-10-03T20:48:23.271Z,3.83
2022-10-03T20:51:42.465Z,3.67
2022-10-03T20:54:53.271Z,3.10
2022-10-03T20:58:07.710Z,3.20
2022-10-03T21:01:15.850Z,3.63
2022-10-03T21:04:29.295Z,3.40
2022-10-03T21:07:38.257Z,3.53
2022-10-03T21:10:45.557Z,3.10
2022-10-03T21:13:53.331Z,3.33
2022-10-03T21:16:56.278Z,3.20
2022-10-03T21:20:27.542Z,3.13
2022-10-03T21:23:30.052Z,3.47
2022-10-03T21:26:37.891Z,3.17
2022-10-03T21:29:42.460Z,3.60
2022-10-03T21:32:57.376Z,3.13
2022-10-03T21:36:09.882Z,3.40
2022-10-03T21:39:28.713Z,3.70
2022-10-03T21:43:05.636Z,3.30
2022-10-03T21:46:16.580Z,3.53
2022-10-03T21:49:37.540Z,3.70
2022-10-03T21:53:00.434Z,3.40
2022-10-03T21:56:24.640Z,3.33
2022-10-03T21:59:41.969Z,3.77
2022-10-03T22:02:55.896Z,4.00
2022-10-03T22:06:17.217Z,3.40
2022-10-03T22:09:19.216Z,3.50
2022-10-03T22:12:22.121Z,3.30
2022-10-03T22:15:35.233Z,3.77
2022-10-03T22:19:09.075Z,3.70
2022-10-03T22:22:16.915Z,3.27
2022-10-03T22:25:30.576Z,3.07
2022-10-03T22:28:50.803Z,3.47
2022-10-03T22:32:18.693Z,3.07
2022-10-03T22:35:35.930Z,4.13
2022-10-03T22:38:38.199Z,4.00
2022-10-03T22:41:42.441Z,3.40
2022-10-03T22:44:48.200Z,4.07
2022-10-03T22:47:53.215Z,3.77
2022-10-03T22:50:56.052Z,4.07
2022-10-03T22:54:05.390Z,3.70
2022-10-03T22:57:12.145Z,3.83
2022-10-03T23:00:17.345Z,3.50
2022-10-03T23:03:34.013Z,3.47
2022-10-03T23:06:40.319Z,3.23
2022-10-03T23:10:03.102Z,3.50
2022-10-03T23:13:11.301Z,3.50
2022-10-03T23:16:19.184Z,3.17
2022-10-03T23:19:30.280Z,3.00
2022-10-03T23:22:34.145Z,3.50
2022-10-03T23:25:47.881Z,4.20
2022-10-03T23:29:12.757Z,3.03
2022-10-03T23:32:46.931Z,3.23
2022-10-03T23:35:50.798Z,3.50
2022-10-03T23:38:54.311Z,3.70
2022-10-03T23:42:01.001Z,3.70
2022-10-03T23:45:12.395Z,3.83
2022-10-03T23:48:18.125Z,4.07
2022-10-03T23:51:22.775Z,3.47
2022-10-03T23:54:25.513Z,4.07
2022-10-03T23:57:38.300Z,3.87
